createdAt,value
2023-02-13T00:01:36.932Z,2.50
2023-02-13T00:04:08.633Z,2.50
2023-02-13T00:06:40.341Z,2.50
2023-02-13T00:09:12.108Z,2.50
2023-02-13T00:11:44.052Z,3.00
2023-02-13T00:14:15.760Z,2.60
2023-02-13T00:16:47.507Z,2.60
2023-02-13T00:19:19.195Z,2.60
2023-02-13T00:21:50.928Z,2.60
2023-02-13T00:24:22.728Z,2.60
2023-02-13T00:26:54.523Z,2.60
2023-02-13T00:29:26.247Z,2.60
2023-02-13T00:31:58.209Z,2.60
2023-02-13T00:34:30.001Z,2.60
2023-02-13T00:37:01.710Z,2.60
2023-02-13T00:39:34.910Z,2.60
2023-02-13T00:42:06.647Z,2.70
2023-02-13T00:44:38.376Z,2.70
2023-02-13T00:47:10.434Z,2.70
2023-02-13T00:49:42.183Z,2.70
2023-02-13T00:52:14.211Z,2.70
2023-02-13T00:54:47.241Z,2.70
2023-02-13T00:57:18.956Z,2.80
2023-02-13T00:59:51.150Z,2.80
2023-02-13T01:02:23.786Z,2.80
2023-02-13T01:04:55.508Z,2.80
2023-02-13T01:07:27.270Z,2.80
2023-02-13T01:09:58.985Z,2.80
2023-02-13T01:12:31.980Z,2.90
2023-02-13T01:15:05.599Z,2.90
2023-02-13T01:17:39.682Z,2.90
2023-02-13T01:20:13.095Z,2.80
2023-02-13T01:22:45.602Z,2.80
2023-02-13T01:25:17.481Z,2.80
2023-02-13T01:27:49.328Z,2.80
2023-02-13T01:30:22.684Z,2.80
2023-02-13T01:32:54.394Z,2.80
2023-02-13T01:35:26.185Z,2.70
2023-02-13T01:37:57.865Z,2.70
2023-02-13T01:40:30.035Z,2.60
2023-02-13T01:43:01.865Z,2.60
2023-02-13T01:45:33.684Z,2.60
2023-02-13T01:48:14.200Z,2.60
2023-02-13T01:51:02.348Z,2.60
2023-02-13T01:53:46.817Z,2.60
2023-02-13T01:56:35.857Z,2.50
2023-02-13T01:59:16.956Z,2.50
2023-02-13T02:01:49.470Z,2.40
2023-02-13T02:04:28.979Z,2.40
2023-02-13T02:07:24.589Z,2.40
2023-02-13T02:10:00.026Z,2.40
2023-02-13T02:12:50.566Z,2.50
2023-02-13T02:15:23.790Z,2.50
2023-02-13T02:17:55.586Z,2.40
2023-02-13T02:20:44.404Z,2.40
2023-02-13T02:23:43.771Z,2.40
2023-02-13T02:27:10.757Z,2.40
2023-02-13T02:30:11.736Z,2.40
2023-02-13T02:33:07.833Z,2.40
2023-02-13T02:36:08.768Z,2.40
2023-02-13T02:38:47.065Z,2.40
2023-02-13T02:41:42.231Z,2.40
2023-02-13T02:44:56.999Z,2.40
2023-02-13T02:47:53.324Z,2.40
2023-02-13T02:50:31.261Z,2.40
2023-02-13T02:53:17.970Z,2.30
2023-02-13T02:56:13.712Z,2.30
2023-02-13T02:59:06.187Z,2.30
2023-02-13T03:01:59.542Z,2.30
2023-02-13T03:04:58.861Z,2.30
2023-02-13T03:07:31.016Z,2.30
2023-02-13T03:10:36.701Z,2.30
2023-02-13T03:13:23.808Z,2.30
2023-02-13T03:16:18.083Z,2.30
2023-02-13T03:19:14.591Z,2.30
2023-02-13T03:22:10.275Z,2.20
2023-02-13T03:24:58.473Z,2.10
2023-02-13T03:28:04.480Z,2.00
2023-02-13T03:30:51.418Z,2.00
2023-02-13T03:33:41.716Z,1.90
2023-02-13T03:36:59.407Z,2.00
2023-02-13T03:39:46.300Z,2.00
2023-02-13T03:42:30.797Z,2.10
2023-02-13T03:45:27.881Z,2.10
2023-02-13T03:48:09.597Z,2.10
2023-02-13T03:50:44.950Z,2.10
2023-02-13T03:53:17.295Z,2.10
2023-02-13T03:56:08.281Z,2.10
2023-02-13T03:59:03.788Z,2.10
2023-02-13T04:01:37.514Z,2.10
2023-02-13T04:04:17.637Z,2.10
2023-02-13T04:06:52.137Z,2.10
2023-02-13T04:09:29.293Z,2.10
2023-02-13T04:12:18.841Z,2.10
2023-02-13T04:15:02.802Z,2.10
2023-02-13T04:17:39.092Z,2.10
2023-02-13T04:20:11.894Z,2.00
2023-02-13T04:22:46.051Z,1.90
2023-02-13T04:25:18.658Z,1.90
2023-02-13T04:27:50.417Z,1.90
2023-02-13T04:30:22.124Z,2.00
2023-02-13T04:32:53.826Z,1.90
2023-02-13T04:35:26.245Z,2.00
2023-02-13T04:37:58.032Z,2.00
2023-02-13T04:40:29.795Z,2.10
2023-02-13T04:43:01.520Z,2.10
2023-02-13T04:45:33.245Z,2.10
2023-02-13T04:48:04.950Z,2.10
2023-02-13T04:50:36.650Z,2.10
2023-02-13T04:53:08.854Z,2.10
2023-02-13T04:55:40.778Z,2.10
2023-02-13T04:58:12.604Z,2.10
2023-02-13T05:00:44.467Z,2.10
2023-02-13T05:03:16.202Z,2.10
2023-02-13T05:05:49.351Z,2.10
2023-02-13T05:08:21.103Z,2.10
2023-02-13T05:10:52.799Z,2.10
2023-02-13T05:13:24.542Z,2.10
2023-02-13T05:15:56.434Z,2.10
2023-02-13T05:18:28.188Z,2.20
2023-02-13T05:21:18.613Z,2.10
2023-02-13T05:23:50.293Z,2.10
2023-02-13T05:26:22.012Z,2.10
2023-02-13T05:29:12.618Z,2.20
2023-02-13T05:31:48.167Z,2.20
2023-02-13T05:34:21.476Z,2.20
2023-02-13T05:36:54.156Z,2.20
2023-02-13T05:39:25.897Z,2.10
2023-02-13T05:41:57.627Z,2.10
2023-02-13T05:44:29.335Z,2.10
2023-02-13T05:47:01.084Z,2.00
2023-02-13T05:49:32.804Z,2.00
2023-02-13T05:52:04.655Z,2.00
2023-02-13T05:54:38.403Z,2.00
2023-02-13T05:57:10.192Z,2.00
2023-02-13T05:59:42.166Z,2.00
2023-02-13T06:02:13.908Z,2.10
2023-02-13T06:04:45.624Z,2.10
2023-02-13T06:07:17.661Z,2.10
2023-02-13T06:09:49.477Z,2.10
2023-02-13T06:12:21.217Z,2.20
2023-02-13T06:14:52.901Z,2.20
2023-02-13T06:17:24.655Z,2.10
2023-02-13T06:19:56.481Z,2.10
2023-02-13T06:22:28.201Z,2.10
2023-02-13T06:24:59.928Z,2.00
2023-02-13T06:27:31.684Z,2.00
2023-02-13T06:30:03.557Z,2.10
2023-02-13T06:32:35.307Z,2.10
2023-02-13T06:35:07.686Z,2.10
2023-02-13T06:37:39.584Z,2.20
2023-02-13T06:40:13.907Z,2.20
2023-02-13T06:42:45.994Z,2.20
2023-02-13T06:45:17.728Z,2.10
2023-02-13T06:47:50.160Z,2.20
2023-02-13T06:50:21.923Z,2.20
2023-02-13T06:52:53.723Z,2.20
2023-02-13T06:55:25.418Z,2.20
2023-02-13T06:57:57.170Z,2.20
2023-02-13T07:00:28.911Z,2.30
2023-02-13T07:03:06.132Z,2.20
2023-02-13T07:05:41.935Z,2.30
2023-02-13T07:08:13.695Z,2.30
2023-02-13T07:10:45.526Z,2.30
2023-02-13T07:13:17.288Z,2.40
2023-02-13T07:15:49.049Z,2.40
2023-02-13T07:18:20.770Z,2.40
2023-02-13T07:20:52.435Z,2.40
2023-02-13T07:23:24.154Z,2.40
2023-02-13T07:25:59.593Z,2.40
2023-02-13T07:28:31.495Z,2.40
2023-02-13T07:31:06.851Z,2.50
2023-02-13T07:33:38.926Z,2.50
2023-02-13T07:36:10.675Z,2.50
2023-02-13T07:38:42.394Z,2.60
2023-02-13T07:41:14.100Z,2.60
2023-02-13T07:43:45.911Z,2.60
2023-02-13T07:46:17.670Z,2.60
2023-02-13T07:48:51.694Z,2.70
2023-02-13T07:51:25.390Z,2.70
2023-02-13T07:53:57.700Z,2.70
2023-02-13T07:56:29.505Z,2.70
2023-02-13T07:59:01.226Z,2.70
2023-02-13T08:01:32.992Z,2.70
2023-02-13T08:04:04.861Z,2.70
2023-02-13T08:06:40.394Z,2.70
2023-02-13T08:09:40.769Z,2.80
2023-02-13T08:12:12.769Z,2.80
2023-02-13T08:14:44.774Z,2.80
2023-02-13T08:17:16.548Z,2.90
2023-02-13T08:19:49.480Z,2.90
2023-02-13T08:22:21.157Z,2.90
2023-02-13T08:24:53.039Z,3.00
2023-02-13T08:27:24.783Z,3.00
2023-02-13T08:29:57.868Z,3.00
2023-02-13T08:32:29.640Z,3.10
2023-02-13T08:35:01.509Z,3.10
2023-02-13T08:37:33.247Z,3.20
2023-02-13T08:40:05.512Z,3.20
2023-02-13T08:42:37.948Z,3.20
2023-02-13T08:45:11.626Z,3.20
2023-02-13T08:47:43.400Z,3.30
2023-02-13T08:50:15.341Z,3.30
2023-02-13T08:52:47.069Z,3.30
2023-02-13T08:55:19.071Z,3.40
2023-02-13T08:57:50.758Z,3.40
2023-02-13T09:00:22.727Z,3.50
2023-02-13T09:02:54.512Z,3.50
2023-02-13T09:05:26.370Z,3.60
2023-02-13T09:08:03.576Z,3.60
2023-02-13T09:10:35.366Z,3.60
2023-02-13T09:13:07.692Z,3.60
2023-02-13T09:15:40.736Z,3.60
2023-02-13T09:18:12.488Z,3.70
2023-02-13T09:20:44.409Z,3.70
2023-02-13T09:23:16.128Z,3.70
2023-02-13T09:25:47.857Z,3.80
2023-02-13T09:28:19.631Z,3.90
2023-02-13T09:30:51.413Z,3.90
2023-02-13T09:33:23.968Z,4.00
2023-02-13T09:35:55.831Z,3.90
2023-02-13T09:38:27.717Z,4.00
2023-02-13T09:41:17.458Z,4.00
2023-02-13T09:43:53.309Z,4.00
2023-02-13T09:46:45.563Z,4.00
2023-02-13T09:49:30.428Z,4.00
2023-02-13T09:52:02.357Z,4.00
2023-02-13T09:54:35.734Z,4.10
2023-02-13T09:57:23.024Z,4.10
2023-02-13T10:00:17.448Z,4.20
2023-02-13T10:02:55.399Z,4.20
2023-02-13T10:05:37.745Z,4.30
2023-02-13T10:08:45.264Z,4.40
2023-02-13T10:11:29.189Z,4.40
2023-02-13T10:14:19.793Z,4.40
2023-02-13T10:16:58.702Z,4.40
2023-02-13T10:19:42.940Z,4.50
2023-02-13T10:22:18.177Z,4.50
2023-02-13T10:25:15.985Z,4.60
2023-02-13T10:27:53.122Z,4.60
2023-02-13T10:30:32.035Z,4.60
2023-02-13T10:33:54.316Z,4.70
2023-02-13T10:36:29.645Z,4.70
2023-02-13T10:39:06.202Z,4.80
2023-02-13T10:41:49.724Z,4.90
2023-02-13T10:44:44.313Z,4.90
2023-02-13T10:47:26.597Z,5.00
2023-02-13T10:50:36.756Z,5.00
2023-02-13T10:53:34.343Z,5.00
2023-02-13T10:56:24.050Z,5.00
2023-02-13T10:59:13.535Z,5.10
2023-02-13T11:01:53.632Z,5.00
2023-02-13T11:04:25.447Z,5.10
2023-02-13T11:07:02.370Z,5.10
2023-02-13T11:09:39.909Z,5.20
2023-02-13T11:12:25.753Z,5.20
2023-02-13T11:15:00.388Z,5.20
2023-02-13T11:17:36.900Z,5.30
2023-02-13T11:20:29.771Z,5.30
2023-02-13T11:23:29.294Z,5.20
2023-02-13T11:26:10.632Z,5.10
2023-02-13T11:28:54.295Z,5.10
2023-02-13T11:31:29.805Z,5.10
2023-02-13T11:34:24.894Z,5.20
2023-02-13T11:37:17.451Z,5.20
2023-02-13T11:39:52.444Z,5.20
2023-02-13T11:42:34.443Z,5.20
2023-02-13T11:45:20.544Z,5.20
2023-02-13T11:47:54.674Z,5.20
2023-02-13T11:50:35.051Z,5.30
2023-02-13T11:53:20.804Z,5.20
2023-02-13T11:56:08.978Z,5.30
2023-02-13T11:58:42.217Z,5.30
2023-02-13T12:01:20.127Z,5.30
2023-02-13T12:04:18.104Z,5.40
2023-02-13T12:07:15.165Z,5.40
2023-02-13T12:09:51.346Z,5.40
2023-02-13T12:12:33.009Z,5.40
2023-02-13T12:15:19.271Z,5.40
2023-02-13T12:18:11.094Z,5.50
2023-02-13T12:20:48.772Z,5.50
2023-02-13T12:23:42.203Z,5.50
2023-02-13T12:26:25.802Z,5.50
2023-02-13T12:29:00.601Z,5.50
2023-02-13T12:31:50.909Z,5.50
2023-02-13T12:35:00.164Z,5.50
2023-02-13T12:37:34.956Z,5.50
2023-02-13T12:40:15.622Z,5.50
2023-02-13T12:43:16.959Z,5.50
2023-02-13T12:46:04.397Z,5.50
2023-02-13T12:48:43.951Z,5.60
2023-02-13T12:51:29.392Z,5.70
2023-02-13T12:54:34.623Z,5.70
2023-02-13T12:57:24.205Z,5.70
2023-02-13T13:00:29.621Z,5.70
2023-02-13T13:03:25.397Z,5.70
2023-02-13T13:06:12.089Z,5.70
2023-02-13T13:09:01.687Z,5.70
2023-02-13T13:11:51.587Z,5.80
2023-02-13T13:14:36.156Z,5.80
2023-02-13T13:17:35.286Z,5.90
2023-02-13T13:20:24.964Z,5.90
2023-02-13T13:23:17.516Z,5.90
2023-02-13T13:26:13.034Z,5.90
2023-02-13T13:28:52.512Z,5.90
2023-02-13T13:31:26.606Z,5.90
2023-02-13T13:34:02.487Z,6.00
2023-02-13T13:36:54.436Z,6.00
2023-02-13T13:39:46.758Z,6.00
2023-02-13T13:42:27.745Z,6.00
2023-02-13T13:45:23.176Z,6.00
2023-02-13T13:48:10.037Z,6.00
2023-02-13T13:50:43.593Z,6.00
2023-02-13T13:53:20.216Z,5.90
2023-02-13T13:56:02.704Z,5.90
2023-02-13T13:58:40.226Z,5.90
2023-02-13T14:01:14.979Z,5.90
2023-02-13T14:03:52.403Z,5.90
2023-02-13T14:06:26.046Z,5.80
2023-02-13T14:09:06.164Z,5.80
2023-02-13T14:11:46.781Z,5.80
2023-02-13T14:14:27.932Z,5.80
2023-02-13T14:17:04.049Z,5.80
2023-02-13T14:21:04.499Z,5.70
2023-02-13T14:23:42.372Z,5.80
2023-02-13T14:26:16.881Z,5.80
2023-02-13T14:28:51.450Z,5.80
2023-02-13T14:31:35.591Z,5.80
2023-02-13T14:34:15.003Z,5.80
2023-02-13T14:36:59.127Z,5.70
2023-02-13T14:39:35.482Z,5.70
2023-02-13T14:42:27.046Z,5.70
2023-02-13T14:45:01.033Z,5.70
2023-02-13T14:47:36.281Z,5.70
2023-02-13T14:50:15.267Z,5.70
2023-02-13T14:52:48.315Z,5.70
2023-02-13T14:55:42.334Z,5.70
2023-02-13T14:58:24.964Z,5.70
2023-02-13T15:01:19.781Z,5.70
2023-02-13T15:03:57.574Z,5.70
2023-02-13T15:06:34.471Z,5.60
2023-02-13T15:09:21.906Z,5.70
2023-02-13T15:11:53.664Z,5.60
2023-02-13T15:14:33.303Z,5.60
2023-02-13T15:17:18.334Z,5.60
2023-02-13T15:19:55.860Z,5.60
2023-02-13T15:22:37.244Z,5.60
2023-02-13T15:25:20.531Z,5.60
2023-02-13T15:27:58.491Z,5.60
2023-02-13T15:30:38.027Z,5.60
2023-02-13T15:33:21.064Z,5.50
2023-02-13T15:36:01.886Z,5.50
2023-02-13T15:38:39.367Z,5.50
2023-02-13T15:41:21.689Z,5.50
2023-02-13T15:43:57.069Z,5.40
2023-02-13T15:46:30.488Z,5.40
2023-02-13T15:49:08.146Z,5.40
2023-02-13T15:51:39.992Z,5.30
2023-02-13T15:54:26.841Z,5.30
2023-02-13T15:57:02.481Z,5.30
2023-02-13T15:59:37.282Z,5.30
2023-02-13T16:02:16.384Z,5.20
2023-02-13T16:04:51.482Z,5.20
2023-02-13T16:07:23.254Z,5.20
2023-02-13T16:10:15.741Z,5.20
2023-02-13T16:12:48.544Z,5.10
2023-02-13T16:15:22.364Z,5.00
2023-02-13T16:17:54.362Z,5.00
2023-02-13T16:20:30.437Z,4.90
2023-02-13T16:23:13.448Z,4.90
2023-02-13T16:25:47.447Z,4.90
2023-02-13T16:28:25.563Z,4.90
2023-02-13T16:31:02.963Z,4.90
2023-02-13T16:33:44.189Z,4.90
2023-02-13T16:36:15.881Z,4.90
2023-02-13T16:38:49.834Z,4.80
2023-02-13T16:41:28.791Z,4.80
2023-02-13T16:44:04.908Z,4.80
2023-02-13T16:46:41.825Z,4.70
2023-02-13T16:49:16.953Z,4.70
2023-02-13T16:52:20.058Z,4.70
2023-02-13T16:55:02.873Z,4.70
2023-02-13T16:57:34.892Z,4.70
2023-02-13T17:00:21.895Z,4.70
2023-02-13T17:02:54.339Z,4.60
2023-02-13T17:05:29.392Z,4.60
2023-02-13T17:08:01.554Z,4.60
2023-02-13T17:10:36.451Z,4.60
2023-02-13T17:13:19.259Z,4.60
2023-02-13T17:15:52.102Z,4.60
2023-02-13T17:18:23.974Z,4.60
2023-02-13T17:20:55.843Z,4.60
2023-02-13T17:23:27.670Z,3.60
2023-02-13T17:25:59.353Z,4.50
2023-02-13T17:28:32.537Z,4.50
2023-02-13T17:31:08.709Z,4.50
2023-02-13T17:33:41.130Z,4.50
2023-02-13T17:36:13.464Z,4.50
2023-02-13T17:38:45.308Z,4.50
2023-02-13T17:41:17.360Z,4.50
2023-02-13T17:43:49.058Z,4.50
2023-02-13T17:46:20.923Z,4.50
2023-02-13T17:48:52.782Z,4.50
2023-02-13T17:51:24.523Z,4.50
2023-02-13T17:53:56.308Z,4.50
2023-02-13T17:56:28.046Z,4.50
2023-02-13T17:58:59.747Z,4.50
2023-02-13T18:01:31.509Z,4.50
2023-02-13T18:04:03.387Z,4.40
2023-02-13T18:06:35.156Z,5.30
2023-02-13T18:09:06.851Z,4.50
2023-02-13T18:11:38.596Z,4.50
2023-02-13T18:14:10.323Z,4.40
2023-02-13T18:16:42.150Z,4.40
2023-02-13T18:19:14.019Z,4.40
2023-02-13T18:21:45.764Z,4.40
2023-02-13T18:24:17.554Z,4.40
2023-02-13T18:26:49.370Z,4.40
2023-02-13T18:29:21.142Z,4.40
2023-02-13T18:31:54.199Z,4.30
2023-02-13T18:34:26.147Z,4.30
2023-02-13T18:36:57.880Z,4.30
2023-02-13T18:39:29.573Z,4.30
2023-02-13T18:42:01.727Z,4.30
2023-02-13T18:44:33.880Z,4.30
2023-02-13T18:47:05.853Z,4.30
2023-02-13T18:49:37.638Z,4.30
2023-02-13T18:52:09.533Z,4.30
2023-02-13T18:54:41.239Z,4.30
2023-02-13T18:57:12.959Z,4.30
2023-02-13T18:59:44.795Z,4.30
2023-02-13T19:02:16.678Z,4.30
2023-02-13T19:04:48.400Z,4.30
2023-02-13T19:07:20.101Z,4.30
2023-02-13T19:09:51.916Z,4.30
2023-02-13T19:12:23.655Z,4.20
2023-02-13T19:14:55.392Z,4.30
2023-02-13T19:17:27.187Z,4.30
2023-02-13T19:19:58.913Z,4.30
2023-02-13T19:22:30.706Z,4.30
2023-02-13T19:25:02.442Z,4.20
2023-02-13T19:27:37.041Z,4.20
2023-02-13T19:30:10.519Z,4.20
2023-02-13T19:32:42.375Z,4.20
2023-02-13T19:35:14.239Z,4.10
2023-02-13T19:37:46.067Z,4.10
2023-02-13T19:40:17.939Z,4.10
2023-02-13T19:42:49.648Z,4.10
2023-02-13T19:45:21.863Z,4.00
2023-02-13T19:47:55.118Z,4.00
2023-02-13T19:50:26.905Z,4.00
2023-02-13T19:52:58.649Z,3.90
2023-02-13T19:55:30.533Z,3.90
2023-02-13T19:58:02.253Z,3.90
2023-02-13T20:00:33.990Z,3.90
2023-02-13T20:03:05.896Z,3.80
2023-02-13T20:05:41.117Z,3.80
2023-02-13T20:08:13.068Z,3.80
2023-02-13T20:10:45.842Z,3.70
2023-02-13T20:13:17.591Z,3.70
2023-02-13T20:15:49.855Z,3.70
2023-02-13T20:18:21.872Z,3.70
2023-02-13T20:20:54.255Z,3.70
2023-02-13T20:23:26.112Z,3.70
2023-02-13T20:26:13.794Z,3.70
2023-02-13T20:28:46.458Z,3.70
2023-02-13T20:31:20.811Z,3.60
2023-02-13T20:33:52.899Z,3.60
2023-02-13T20:36:27.576Z,3.60
2023-02-13T20:39:01.640Z,3.60
2023-02-13T20:41:36.462Z,3.60
2023-02-13T20:44:12.338Z,3.50
2023-02-13T20:46:44.156Z,3.50
2023-02-13T20:49:20.205Z,3.50
2023-02-13T20:51:52.406Z,3.50
2023-02-13T20:54:24.118Z,3.50
2023-02-13T20:56:55.806Z,3.50
2023-02-13T20:59:27.532Z,3.50
2023-02-13T21:01:59.346Z,3.50
2023-02-13T21:04:33.085Z,3.60
2023-02-13T21:07:09.173Z,3.50
2023-02-13T21:09:40.877Z,3.50
2023-02-13T21:12:12.924Z,3.60
2023-02-13T21:14:44.990Z,3.60
2023-02-13T21:17:16.697Z,3.60
2023-02-13T21:19:48.441Z,3.60
2023-02-13T21:22:20.174Z,3.60
2023-02-13T21:24:51.943Z,3.60
2023-02-13T21:27:23.705Z,3.60
2023-02-13T21:29:55.895Z,3.60
2023-02-13T21:32:27.604Z,3.60
2023-02-13T21:34:59.338Z,3.60
2023-02-13T21:37:31.214Z,3.60
2023-02-13T21:40:03.004Z,3.60
2023-02-13T21:42:34.684Z,3.60
2023-02-13T21:45:06.970Z,3.60
2023-02-13T21:47:38.722Z,3.60
2023-02-13T21:50:10.793Z,3.60
2023-02-13T21:52:42.483Z,3.60
2023-02-13T21:55:14.243Z,3.60
2023-02-13T21:57:45.991Z,3.60
2023-02-13T22:00:17.838Z,3.60
2023-02-13T22:02:49.674Z,3.60
2023-02-13T22:05:21.373Z,3.60
2023-02-13T22:08:11.022Z,3.60
2023-02-13T22:10:42.781Z,3.60
2023-02-13T22:13:14.448Z,3.60
2023-02-13T22:15:46.212Z,3.60
2023-02-13T22:18:17.901Z,3.60
2023-02-13T22:20:49.632Z,3.50
2023-02-13T22:23:21.373Z,3.50
2023-02-13T22:25:53.153Z,3.50
2023-02-13T22:28:24.870Z,3.50
2023-02-13T22:30:57.151Z,3.50
2023-02-13T22:33:29.074Z,3.50
2023-02-13T22:36:01.382Z,3.50
2023-02-13T22:38:34.451Z,3.50
2023-02-13T22:41:14.365Z,3.50
2023-02-13T22:43:46.084Z,3.50
2023-02-13T22:46:26.250Z,3.50
2023-02-13T22:48:59.152Z,3.50
2023-02-13T22:51:35.592Z,3.50
2023-02-13T22:54:07.346Z,3.50
2023-02-13T22:56:39.101Z,3.50
2023-02-13T22:59:11.752Z,3.50
2023-02-13T23:01:43.509Z,3.40
2023-02-13T23:04:16.460Z,3.40
2023-02-13T23:06:48.512Z,3.40
2023-02-13T23:09:20.208Z,3.40
2023-02-13T23:12:10.391Z,3.40
2023-02-13T23:14:42.139Z,3.40
2023-02-13T23:17:32.410Z,3.40
2023-02-13T23:20:04.512Z,3.50
2023-02-13T23:22:36.234Z,3.50
2023-02-13T23:25:08.727Z,3.40
2023-02-13T23:27:40.426Z,3.50
2023-02-13T23:30:14.143Z,3.50
2023-02-13T23:32:45.984Z,3.50
2023-02-13T23:35:17.818Z,3.50
2023-02-13T23:37:49.669Z,3.50
2023-02-13T23:40:21.572Z,3.50
2023-02-13T23:42:53.390Z,3.50
2023-02-13T23:45:25.123Z,3.50
2023-02-13T23:47:56.824Z,3.60
2023-02-13T23:50:28.650Z,3.60
2023-02-13T23:53:00.419Z,3.60
2023-02-13T23:55:32.140Z,3.60
2023-02-13T23:58:03.868Z,3.60
